createdAt,value
2018-12-16T00:01:51.772Z,10.63
2018-12-16T00:04:20.158Z,11.05
2018-12-16T00:06:48.518Z,10.35
2018-12-16T00:09:17.091Z,10.93
2018-12-16T00:11:45.415Z,9.95
2018-12-16T00:14:13.768Z,10.58
2018-12-16T00:16:42.126Z,10.88
2018-12-16T00:19:11.432Z,10.80
2018-12-16T00:21:39.992Z,10.43
2018-12-16T00:24:08.349Z,10.13
2018-12-16T00:26:47.892Z,10.58
2018-12-16T00:29:20.704Z,11.38
2018-12-16T00:31:49.060Z,11.05
2018-12-16T00:34:17.535Z,10.20
2018-12-16T00:36:45.880Z,10.15
2018-12-16T00:39:14.240Z,9.98
2018-12-16T00:41:42.622Z,10.80
2018-12-16T00:44:11.008Z,10.65
2018-12-16T00:46:39.329Z,10.95
2018-12-16T00:49:07.711Z,10.00
2018-12-16T00:51:36.076Z,10.13
2018-12-16T00:54:04.755Z,10.85
2018-12-16T00:56:33.552Z,9.98
2018-12-16T00:59:02.028Z,10.65
2018-12-16T01:01:30.388Z,13.25
2018-12-16T01:03:58.780Z,11.40
2018-12-16T01:06:27.239Z,11.12
2018-12-16T01:08:55.616Z,10.20
2018-12-16T01:11:23.969Z,11.35
2018-12-16T01:13:52.316Z,11.35
2018-12-16T01:16:20.715Z,11.10
2018-12-16T01:18:49.185Z,9.98
2018-12-16T01:21:17.656Z,11.48
2018-12-16T01:23:46.031Z,10.55
2018-12-16T01:26:14.444Z,10.80
2018-12-16T01:28:42.769Z,11.28
2018-12-16T01:31:11.154Z,11.00
2018-12-16T01:33:39.547Z,10.23
2018-12-16T01:36:07.905Z,11.15
2018-12-16T01:38:36.290Z,12.93
2018-12-16T01:41:04.724Z,12.78
2018-12-16T01:43:33.104Z,11.60
2018-12-16T01:46:01.508Z,9.30
2018-12-16T01:48:29.922Z,12.70
2018-12-16T01:50:58.317Z,11.65
2018-12-16T01:53:26.638Z,11.97
2018-12-16T01:55:55.096Z,10.95
2018-12-16T01:58:23.440Z,12.80
2018-12-16T02:00:51.816Z,11.15
2018-12-16T02:03:20.167Z,11.80
2018-12-16T02:05:48.576Z,12.13
2018-12-16T02:08:17.156Z,10.78
2018-12-16T02:10:45.504Z,12.43
2018-12-16T02:13:13.836Z,11.80
2018-12-16T02:15:42.169Z,11.55
2018-12-16T02:18:10.636Z,12.20
2018-12-16T02:20:39.423Z,12.18
2018-12-16T02:23:07.763Z,12.18
2018-12-16T02:25:36.375Z,10.55
2018-12-16T02:28:04.745Z,13.38
2018-12-16T02:30:33.066Z,12.28
2018-12-16T02:33:01.486Z,11.55
2018-12-16T02:35:29.849Z,12.20
2018-12-16T02:37:58.200Z,11.90
2018-12-16T02:40:26.530Z,12.65
2018-12-16T02:42:54.876Z,12.33
2018-12-16T02:45:23.297Z,10.80
2018-12-16T02:47:51.656Z,11.30
2018-12-16T02:50:20.016Z,12.00
2018-12-16T02:52:48.318Z,12.58
2018-12-16T02:55:16.864Z,12.65
2018-12-16T02:57:45.205Z,11.35
2018-12-16T03:00:13.751Z,11.15
2018-12-16T03:02:42.993Z,13.08
2018-12-16T03:05:11.363Z,13.18
2018-12-16T03:07:39.706Z,11.60
2018-12-16T03:10:08.354Z,12.23
2018-12-16T03:12:36.679Z,12.95
2018-12-16T03:15:05.758Z,12.33
2018-12-16T03:17:34.064Z,12.30
2018-12-16T03:20:02.485Z,11.90
2018-12-16T03:22:30.821Z,13.08
2018-12-16T03:24:59.162Z,11.25
2018-12-16T03:27:27.482Z,10.60
2018-12-16T03:29:55.816Z,11.35
2018-12-16T03:32:24.231Z,11.93
2018-12-16T03:34:52.561Z,11.43
2018-12-16T03:37:20.943Z,13.32
2018-12-16T03:39:49.345Z,10.55
2018-12-16T03:42:17.737Z,14.33
2018-12-16T03:44:46.133Z,11.22
2018-12-16T03:47:14.559Z,11.57
2018-12-16T03:49:43.015Z,13.28
2018-12-16T03:52:11.445Z,14.65
2018-12-16T03:54:39.786Z,12.43
2018-12-16T03:57:08.701Z,13.60
2018-12-16T03:59:37.048Z,12.63
2018-12-16T04:02:05.401Z,13.15
2018-12-16T04:04:33.787Z,12.75
2018-12-16T04:07:02.234Z,12.30
2018-12-16T04:09:30.662Z,12.43
2018-12-16T04:11:59.022Z,13.60
2018-12-16T04:14:27.601Z,13.28
2018-12-16T04:16:55.950Z,13.18
2018-12-16T04:19:24.278Z,12.68
2018-12-16T04:21:52.632Z,14.05
2018-12-16T04:24:21.634Z,13.20
2018-12-16T04:26:50.049Z,13.28
2018-12-16T04:29:18.458Z,13.90
2018-12-16T04:31:46.904Z,12.50
2018-12-16T04:34:15.378Z,13.60
2018-12-16T04:36:43.757Z,13.95
2018-12-16T04:39:12.107Z,14.20
2018-12-16T04:41:40.517Z,12.65
2018-12-16T04:44:08.864Z,14.30
2018-12-16T04:46:37.225Z,13.70
2018-12-16T04:49:05.569Z,13.62
2018-12-16T04:51:33.956Z,12.25
2018-12-16T04:54:02.299Z,13.50
2018-12-16T04:56:30.697Z,13.25
2018-12-16T04:58:59.032Z,14.00
2018-12-16T05:01:27.350Z,14.40
2018-12-16T05:03:55.812Z,13.53
2018-12-16T05:06:24.233Z,14.25
2018-12-16T05:08:52.624Z,11.20
2018-12-16T05:11:20.952Z,14.35
2018-12-16T05:13:49.297Z,13.00
2018-12-16T05:16:17.672Z,13.98
2018-12-16T05:18:46.061Z,13.35
2018-12-16T05:21:14.407Z,14.53
2018-12-16T05:23:42.780Z,14.87
2018-12-16T05:26:11.141Z,16.12
2018-12-16T05:28:39.515Z,14.93
2018-12-16T05:31:07.895Z,13.90
2018-12-16T05:33:36.382Z,13.90
2018-12-16T05:36:04.853Z,14.60
2018-12-16T05:38:33.186Z,17.60
2018-12-16T05:41:01.528Z,16.25
2018-12-16T05:43:29.883Z,18.27
2018-12-16T05:45:58.238Z,16.05
2018-12-16T05:48:26.598Z,17.10
2018-12-16T05:50:55.036Z,16.23
2018-12-16T05:53:23.412Z,16.10
2018-12-16T05:55:51.746Z,17.50
2018-12-16T05:58:21.081Z,17.40
2018-12-16T06:00:49.446Z,18.45
2018-12-16T06:03:17.763Z,17.42
2018-12-16T06:05:46.103Z,17.20
2018-12-16T06:08:14.484Z,17.30
2018-12-16T06:10:42.904Z,16.85
2018-12-16T06:13:11.261Z,17.05
2018-12-16T06:15:39.909Z,17.25
2018-12-16T06:18:08.295Z,17.12
2018-12-16T06:20:36.681Z,17.50
2018-12-16T06:23:05.014Z,18.30
2018-12-16T06:25:33.355Z,18.02
2018-12-16T06:28:01.739Z,17.57
2018-12-16T06:30:33.344Z,18.87
2018-12-16T06:33:01.764Z,17.23
2018-12-16T06:35:30.200Z,18.07
2018-12-16T06:37:58.580Z,17.57
2018-12-16T06:40:26.913Z,18.37
2018-12-16T06:42:55.263Z,17.55
2018-12-16T06:45:23.644Z,17.37
2018-12-16T06:47:52.032Z,18.95
2018-12-16T06:50:20.401Z,17.70
2018-12-16T06:52:48.709Z,17.62
2018-12-16T06:55:17.034Z,17.62
2018-12-16T06:57:45.447Z,19.57
2018-12-16T07:00:13.916Z,18.32
2018-12-16T07:02:42.261Z,19.37
2018-12-16T07:05:11.007Z,17.67
2018-12-16T07:07:39.382Z,20.45
2018-12-16T07:10:07.743Z,18.82
2018-12-16T07:12:36.220Z,18.27
2018-12-16T07:15:05.219Z,18.98
2018-12-16T07:17:33.694Z,16.25
2018-12-16T07:20:02.189Z,18.85
2018-12-16T07:22:30.577Z,17.10
2018-12-16T07:24:59.141Z,20.52
2018-12-16T07:27:27.653Z,19.40
2018-12-16T07:29:56.022Z,20.55
2018-12-16T07:32:24.548Z,18.15
2018-12-16T07:34:52.918Z,19.23
2018-12-16T07:37:21.319Z,18.45
2018-12-16T07:39:49.866Z,17.98
2018-12-16T07:42:18.206Z,18.90
2018-12-16T07:44:46.569Z,19.82
2018-12-16T07:47:14.955Z,18.55
2018-12-16T07:49:43.387Z,18.00
2018-12-16T07:52:11.851Z,18.95
2018-12-16T07:54:40.211Z,19.12
2018-12-16T07:57:08.601Z,18.37
2018-12-16T07:59:36.983Z,19.67
2018-12-16T08:02:05.326Z,18.23
2018-12-16T08:04:33.696Z,18.82
2018-12-16T08:07:02.036Z,19.85
2018-12-16T08:09:30.387Z,19.12
2018-12-16T08:11:58.747Z,17.40
2018-12-16T08:14:27.100Z,18.17
2018-12-16T08:16:55.804Z,18.65
2018-12-16T08:19:24.550Z,18.48
2018-12-16T08:21:52.957Z,18.30
2018-12-16T08:24:23.294Z,18.55
2018-12-16T08:26:51.920Z,19.98
2018-12-16T08:29:20.247Z,17.45
2018-12-16T08:31:48.647Z,18.15
2018-12-16T08:34:17.060Z,20.30
2018-12-16T08:36:45.453Z,19.60
2018-12-16T08:39:13.827Z,18.17
2018-12-16T08:41:42.185Z,19.48
2018-12-16T08:44:10.545Z,20.30
2018-12-16T08:46:38.893Z,20.68
2018-12-16T08:49:07.264Z,18.98
2018-12-16T08:51:35.842Z,20.50
2018-12-16T08:54:04.235Z,17.20
2018-12-16T08:56:32.618Z,19.55
2018-12-16T08:59:01.067Z,18.50
2018-12-16T09:01:29.450Z,18.65
2018-12-16T09:03:57.884Z,20.27
2018-12-16T09:06:26.291Z,21.23
2018-12-16T09:08:55.568Z,19.40
2018-12-16T09:11:24.078Z,18.98
2018-12-16T09:13:52.437Z,18.57
2018-12-16T09:16:20.853Z,19.12
2018-12-16T09:18:49.217Z,18.90
2018-12-16T09:21:17.531Z,18.65
2018-12-16T09:23:45.944Z,18.23
2018-12-16T09:26:14.288Z,17.95
2018-12-16T09:28:42.724Z,18.05
2018-12-16T09:31:11.058Z,18.37
2018-12-16T09:33:39.523Z,17.67
2018-12-16T09:36:07.924Z,17.60
2018-12-16T09:38:36.296Z,18.98
2018-12-16T09:41:04.735Z,19.42
2018-12-16T09:43:33.113Z,20.12
2018-12-16T09:46:01.497Z,19.20
2018-12-16T09:48:33.278Z,19.25
2018-12-16T09:51:01.621Z,19.07
2018-12-16T09:53:30.001Z,19.20
2018-12-16T09:55:58.400Z,19.70
2018-12-16T09:58:26.747Z,20.65
2018-12-16T10:00:55.112Z,18.00
2018-12-16T10:03:23.499Z,17.45
2018-12-16T10:05:51.844Z,18.85
2018-12-16T10:08:20.260Z,19.12
2018-12-16T10:10:48.640Z,19.82
2018-12-16T10:13:17.048Z,19.45
2018-12-16T10:15:45.395Z,17.42
2018-12-16T10:18:13.740Z,17.37
2018-12-16T10:20:42.152Z,18.25
2018-12-16T10:23:10.531Z,19.05
2018-12-16T10:25:38.884Z,18.48
2018-12-16T10:28:07.275Z,18.23
2018-12-16T10:30:35.629Z,19.30
2018-12-16T10:33:04.146Z,19.90
2018-12-16T10:35:32.564Z,18.17
2018-12-16T10:38:00.939Z,19.32
2018-12-16T10:40:29.427Z,19.37
2018-12-16T10:42:57.820Z,19.55
2018-12-16T10:45:26.799Z,19.67
2018-12-16T10:47:55.144Z,19.75
2018-12-16T10:50:23.470Z,19.37
2018-12-16T10:52:51.842Z,20.35
2018-12-16T10:55:20.565Z,21.52
2018-12-16T10:57:48.932Z,20.35
2018-12-16T11:00:22.635Z,19.12
2018-12-16T11:02:51.003Z,19.23
2018-12-16T11:05:19.733Z,20.10
2018-12-16T11:07:48.075Z,18.60
2018-12-16T11:10:17.108Z,19.05
2018-12-16T11:12:46.482Z,17.92
2018-12-16T11:15:15.033Z,18.90
2018-12-16T11:17:43.385Z,18.00
2018-12-16T11:20:12.005Z,18.87
2018-12-16T11:22:40.380Z,18.52
2018-12-16T11:25:11.441Z,19.45
2018-12-16T11:27:39.822Z,19.20
2018-12-16T11:30:08.710Z,19.02
2018-12-16T11:32:37.112Z,19.75
2018-12-16T11:35:05.773Z,18.32
2018-12-16T11:37:34.165Z,18.37
2018-12-16T11:40:02.560Z,20.70
2018-12-16T11:42:31.010Z,19.25
2018-12-16T11:44:59.484Z,18.95
2018-12-16T11:47:27.826Z,20.25
2018-12-16T11:49:56.171Z,18.40
2018-12-16T11:52:25.040Z,17.80
2018-12-16T11:54:53.568Z,19.17
2018-12-16T11:57:21.940Z,21.12
2018-12-16T11:59:50.359Z,20.62
2018-12-16T12:02:19.325Z,21.42
2018-12-16T12:04:48.055Z,21.12
2018-12-16T12:07:16.647Z,21.85
2018-12-16T12:09:45.074Z,22.50
2018-12-16T12:12:13.421Z,20.48
2018-12-16T12:14:41.895Z,18.80
2018-12-16T12:17:10.420Z,19.62
2018-12-16T12:19:40.597Z,20.27
2018-12-16T12:22:09.307Z,19.50
2018-12-16T12:24:37.684Z,20.68
2018-12-16T12:27:06.151Z,18.92
2018-12-16T12:29:34.667Z,18.82
2018-12-16T12:32:03.052Z,17.82
2018-12-16T12:34:31.429Z,21.23
2018-12-16T12:36:59.821Z,20.65
2018-12-16T12:39:28.153Z,20.57
2018-12-16T12:41:56.541Z,18.55
2018-12-16T12:44:24.912Z,20.52
2018-12-16T12:46:53.286Z,21.70
2018-12-16T12:49:21.683Z,20.40
2018-12-16T12:51:50.017Z,20.17
2018-12-16T12:54:18.411Z,22.00
2018-12-16T12:56:46.808Z,20.80
2018-12-16T12:59:15.229Z,21.57
2018-12-16T13:01:43.597Z,23.25
2018-12-16T13:04:12.070Z,22.48
2018-12-16T13:06:40.428Z,22.50
2018-12-16T13:09:09.232Z,23.55
2018-12-16T13:11:37.744Z,20.70
2018-12-16T13:14:06.110Z,21.00
2018-12-16T13:16:34.468Z,21.77
2018-12-16T13:19:02.987Z,21.73
2018-12-16T13:21:31.381Z,22.70
2018-12-16T13:23:59.723Z,21.50
2018-12-16T13:26:28.242Z,24.45
2018-12-16T13:28:56.603Z,22.13
2018-12-16T13:31:24.958Z,22.80
2018-12-16T13:33:53.331Z,23.92
2018-12-16T13:36:21.680Z,24.80
2018-12-16T13:38:50.048Z,25.10
2018-12-16T13:41:18.504Z,24.95
2018-12-16T13:43:46.959Z,26.10
2018-12-16T13:46:15.357Z,24.57
2018-12-16T13:48:43.722Z,24.27
2018-12-16T13:51:12.084Z,22.58
2018-12-16T13:53:40.644Z,24.50
2018-12-16T13:56:09.060Z,23.00
2018-12-16T13:58:37.467Z,24.00
2018-12-16T14:01:06.031Z,24.80
2018-12-16T14:03:34.449Z,21.65
2018-12-16T14:06:02.820Z,24.32
2018-12-16T14:08:31.293Z,25.60
2018-12-16T14:10:59.712Z,23.65
2018-12-16T14:13:32.198Z,23.10
2018-12-16T14:16:00.584Z,24.52
2018-12-16T14:18:29.023Z,23.90
2018-12-16T14:20:57.473Z,25.35
2018-12-16T14:23:25.930Z,28.00
2018-12-16T14:25:54.297Z,24.02
2018-12-16T14:28:22.676Z,26.75
2018-12-16T14:30:51.031Z,24.60
2018-12-16T14:33:19.374Z,23.27
2018-12-16T14:35:47.972Z,26.37
2018-12-16T14:38:16.779Z,24.90
2018-12-16T14:40:45.128Z,22.98
2018-12-16T14:43:13.481Z,23.02
2018-12-16T14:45:41.916Z,23.05
2018-12-16T14:48:10.269Z,26.48
2018-12-16T14:50:38.595Z,25.52
2018-12-16T14:53:06.997Z,24.57
2018-12-16T14:55:35.353Z,21.87
2018-12-16T14:58:04.762Z,22.75
2018-12-16T15:00:33.765Z,25.32
2018-12-16T15:03:04.115Z,24.67
2018-12-16T15:05:32.485Z,25.95
2018-12-16T15:08:00.852Z,25.40
2018-12-16T15:10:29.252Z,24.27
2018-12-16T15:12:57.731Z,25.72
2018-12-16T15:15:26.164Z,24.72
2018-12-16T15:17:54.532Z,25.27
2018-12-16T15:20:23.044Z,24.70
2018-12-16T15:22:51.511Z,25.52
2018-12-16T15:25:19.861Z,24.90
2018-12-16T15:27:48.196Z,23.27
2018-12-16T15:30:16.707Z,25.40
2018-12-16T15:32:45.140Z,24.23
2018-12-16T15:35:13.687Z,23.90
2018-12-16T15:37:43.138Z,24.18
2018-12-16T15:40:11.479Z,25.25
2018-12-16T15:42:39.862Z,23.25
2018-12-16T15:45:10.147Z,24.20
2018-12-16T15:47:38.649Z,23.50
2018-12-16T15:50:08.409Z,25.75
2018-12-16T15:52:36.878Z,25.65
2018-12-16T15:55:08.021Z,23.42
2018-12-16T15:57:36.516Z,24.15
2018-12-16T16:02:40.204Z,27.58
2018-12-16T16:05:08.777Z,26.77
2018-12-16T16:07:37.111Z,27.45
2018-12-16T16:10:07.037Z,26.07
2018-12-16T16:12:35.531Z,23.12
2018-12-16T16:15:04.137Z,27.15
2018-12-16T16:17:32.678Z,27.17
2018-12-16T16:20:01.096Z,28.77
2018-12-16T16:22:29.561Z,27.07
2018-12-16T16:24:58.035Z,31.82
2018-12-16T16:27:26.372Z,28.62
2018-12-16T16:29:54.704Z,24.92
2018-12-16T16:32:23.300Z,26.95
2018-12-16T16:34:51.760Z,27.07
2018-12-16T16:37:20.164Z,28.57
2018-12-16T16:39:48.666Z,26.17
2018-12-16T16:42:17.116Z,28.73
2018-12-16T16:44:45.545Z,27.13
2018-12-16T16:47:13.963Z,25.92
2018-12-16T16:49:42.384Z,25.48
2018-12-16T16:52:10.786Z,27.60
2018-12-16T16:54:39.115Z,25.95
2018-12-16T16:57:14.264Z,25.57
2018-12-16T16:59:42.672Z,24.32
2018-12-16T17:02:11.092Z,25.08
2018-12-16T17:04:39.549Z,24.67
2018-12-16T17:07:07.976Z,27.05
2018-12-16T17:09:36.347Z,24.77
2018-12-16T17:12:04.924Z,24.70
2018-12-16T17:14:33.376Z,25.55
2018-12-16T17:17:01.810Z,24.55
2018-12-16T17:19:30.148Z,23.40
2018-12-16T17:21:58.718Z,25.57
2018-12-16T17:24:27.137Z,25.27
2018-12-16T17:26:55.550Z,25.30
2018-12-16T17:29:24.187Z,25.95
2018-12-16T17:31:52.605Z,27.10
2018-12-16T17:34:20.983Z,24.43
2018-12-16T17:36:49.423Z,27.17
2018-12-16T17:39:17.889Z,26.52
2018-12-16T17:41:46.260Z,28.70
2018-12-16T17:44:14.683Z,28.80
2018-12-16T17:46:43.037Z,26.75
2018-12-16T17:49:11.494Z,26.93
2018-12-16T17:51:39.863Z,24.07
2018-12-16T17:54:08.263Z,28.60
2018-12-16T17:56:37.180Z,26.50
2018-12-16T17:59:05.814Z,28.27
2018-12-16T18:01:34.961Z,26.12
2018-12-16T18:04:05.336Z,29.35
2018-12-16T18:06:33.721Z,28.40
2018-12-16T18:09:02.058Z,31.30
2018-12-16T18:11:30.609Z,32.50
2018-12-16T18:13:59.074Z,30.15
2018-12-16T18:16:27.624Z,30.77
2018-12-16T18:18:56.035Z,31.30
2018-12-16T18:21:24.333Z,29.77
2018-12-16T18:23:52.780Z,27.17
2018-12-16T18:26:21.130Z,29.67
2018-12-16T18:28:49.506Z,30.77
2018-12-16T18:31:17.821Z,29.32
2018-12-16T18:33:46.446Z,30.10
2018-12-16T18:36:14.851Z,28.10
2018-12-16T18:38:43.286Z,29.23
2018-12-16T18:41:11.672Z,29.07
2018-12-16T18:43:40.038Z,31.52
2018-12-16T18:46:08.418Z,31.25
2018-12-16T18:48:36.892Z,30.60
2018-12-16T18:51:05.291Z,30.37
2018-12-16T18:53:33.608Z,31.77
2018-12-16T18:56:02.149Z,30.70
2018-12-16T18:58:30.551Z,30.10
2018-12-16T19:00:59.006Z,30.70
2018-12-16T19:03:27.465Z,29.10
2018-12-16T19:05:55.944Z,29.12
2018-12-16T19:08:24.431Z,27.82
2018-12-16T19:10:52.792Z,27.45
2018-12-16T19:13:21.935Z,31.07
2018-12-16T19:15:50.566Z,30.17
2018-12-16T19:18:19.036Z,29.65
2018-12-16T19:20:47.545Z,30.70
2018-12-16T19:23:15.921Z,34.15
2018-12-16T19:25:44.320Z,29.23
2018-12-16T19:28:12.661Z,32.00
2018-12-16T19:30:41.085Z,32.58
2018-12-16T19:33:09.439Z,32.70
2018-12-16T19:35:37.829Z,32.10
2018-12-16T19:38:06.293Z,30.70
2018-12-16T19:40:34.640Z,30.85
2018-12-16T19:43:03.045Z,31.48
2018-12-16T19:45:31.487Z,28.70
2018-12-16T19:47:59.840Z,32.63
2018-12-16T19:50:28.199Z,29.50
2018-12-16T19:52:56.670Z,29.40
2018-12-16T19:55:25.445Z,32.33
2018-12-16T19:57:53.792Z,27.05
2018-12-16T20:00:22.387Z,30.20
2018-12-16T20:02:50.845Z,33.53
2018-12-16T20:05:21.291Z,29.63
2018-12-16T20:07:50.167Z,30.02
2018-12-16T20:10:18.645Z,31.15
2018-12-16T20:12:47.064Z,33.15
2018-12-16T20:15:15.395Z,30.97
2018-12-16T20:17:43.871Z,29.98
2018-12-16T20:20:12.455Z,30.23
2018-12-16T20:22:40.892Z,33.25
2018-12-16T20:25:09.357Z,33.65
2018-12-16T20:27:37.787Z,32.83
2018-12-16T20:30:08.174Z,31.05
2018-12-16T20:32:36.618Z,31.97
2018-12-16T20:35:05.293Z,33.42
2018-12-16T20:37:34.313Z,30.50
2018-12-16T20:40:02.932Z,34.80
2018-12-16T20:42:31.406Z,29.15
2018-12-16T20:44:59.934Z,31.97
2018-12-16T20:47:28.337Z,32.88
2018-12-16T20:49:56.786Z,30.72
2018-12-16T20:52:25.141Z,31.12
2018-12-16T20:54:53.501Z,31.65
2018-12-16T20:57:21.861Z,29.32
2018-12-16T20:59:50.856Z,31.57
2018-12-16T21:02:19.409Z,33.33
2018-12-16T21:04:47.828Z,33.92
2018-12-16T21:07:16.229Z,31.68
2018-12-16T21:09:44.662Z,33.63
2018-12-16T21:14:25.945Z,32.05
2018-12-16T21:18:02.999Z,31.42
2018-12-16T21:20:31.598Z,32.03
2018-12-16T21:22:59.943Z,30.80
2018-12-16T21:25:28.801Z,30.85
2018-12-16T21:27:57.264Z,34.92
2018-12-16T21:30:25.669Z,33.88
2018-12-16T21:32:54.051Z,32.60
2018-12-16T21:35:22.531Z,34.00
2018-12-16T21:37:50.905Z,35.28
2018-12-16T21:40:26.041Z,33.00
2018-12-16T21:42:54.529Z,32.55
2018-12-16T21:45:22.914Z,37.63
2018-12-16T21:47:51.285Z,32.05
2018-12-16T21:50:19.684Z,34.60
2018-12-16T21:52:48.007Z,34.08
2018-12-16T21:55:16.376Z,35.98
2018-12-16T21:57:44.746Z,35.20
2018-12-16T22:00:13.219Z,34.08
2018-12-16T22:02:41.619Z,33.45
2018-12-16T22:05:11.775Z,31.68
2018-12-16T22:07:40.234Z,35.05
2018-12-16T22:10:08.826Z,35.55
2018-12-16T22:12:37.143Z,33.38
2018-12-16T22:15:05.840Z,33.67
2018-12-16T22:17:34.225Z,33.48
2018-12-16T22:20:02.825Z,31.50
2018-12-16T22:22:31.152Z,33.78
2018-12-16T22:24:59.487Z,34.25
2018-12-16T22:27:27.871Z,36.77
2018-12-16T22:29:56.233Z,34.25
2018-12-16T22:32:24.739Z,33.50
2018-12-16T22:34:53.111Z,30.60
2018-12-16T22:37:21.823Z,34.05
2018-12-16T22:39:50.332Z,32.10
2018-12-16T22:42:18.696Z,37.03
2018-12-16T22:44:47.155Z,32.17
2018-12-16T22:47:15.598Z,33.73
2018-12-16T22:49:43.931Z,34.13
2018-12-16T22:52:12.281Z,37.00
2018-12-16T22:54:40.621Z,32.98
2018-12-16T22:57:08.992Z,37.90
2018-12-16T22:59:37.428Z,39.25
2018-12-16T23:02:05.961Z,33.92
2018-12-16T23:04:34.434Z,34.43
2018-12-16T23:07:02.932Z,36.45
2018-12-16T23:09:31.292Z,35.45
2018-12-16T23:11:59.648Z,35.75
2018-12-16T23:14:32.126Z,31.50
2018-12-16T23:17:00.574Z,35.92
2018-12-16T23:19:29.053Z,33.20
2018-12-16T23:21:57.388Z,35.70
2018-12-16T23:24:26.767Z,35.45
2018-12-16T23:26:55.125Z,32.80
2018-12-16T23:29:23.505Z,33.18
2018-12-16T23:31:51.896Z,31.87
2018-12-16T23:34:20.251Z,32.75
2018-12-16T23:36:48.672Z,31.68
2018-12-16T23:39:17.112Z,32.00
2018-12-16T23:41:45.466Z,35.45
2018-12-16T23:44:13.933Z,31.60
2018-12-16T23:46:42.301Z,31.70
2018-12-16T23:49:10.631Z,32.88
2018-12-16T23:51:38.987Z,34.60
2018-12-16T23:54:07.379Z,32.70
2018-12-16T23:56:35.806Z,30.95
2018-12-16T23:59:04.151Z,30.60
